EDT,Max TemperatureF,Mean TemperatureF,Min TemperatureF,Max Dew PointF,MeanDew PointF,Min DewpointF,Max Humidity, Mean Humidity, Min Humidity, Max Sea Level PressureIn, Mean Sea Level PressureIn, Min Sea Level PressureIn, Max VisibilityMiles, Mean VisibilityMiles, Min VisibilityMiles, Max Wind SpeedMPH, Mean Wind SpeedMPH, Max Gust SpeedMPH,PrecipitationIn, CloudCover, Events, WindDirDegrees
2011-10-1,54,49,43,52,44,36,93,79,65,30.02,29.89,29.73,10,7,2,28,16,36,0.43,8,Rain,16
2011-10-2,54,49,44,50,44,37,96,86,76,29.99,29.92,29.88,10,7,2,21,12,26,0.38,8,Rain,27
2011-10-3,61,56,51,52,50,47,100,81,62,30.09,30.01,29.91,10,8,3,12,5,15,0.33,7,Rain,15
2011-10-4,63,57,50,54,52,49,100,84,67,30.17,30.13,30.07,10,10,4,14,6,17,0.02,7,Rain,299
2011-10-5,63,53,42,51,43,36,93,66,39,30.37,30.25,30.15,10,10,10,15,6,22,0.00,1,,305
2011-10-6,65,51,37,43,39,34,92,64,36,30.43,30.39,30.34,10,10,10,12,4,15,0.00,1,,233
2011-10-7,72,57,41,50,44,38,89,64,39,30.47,30.42,30.38,10,10,10,10,3,7,0.00,1,,219
2011-10-8,80,65,50,55,51,46,93,68,42,30.49,30.43,30.38,10,10,10,10,5,14,0.00,1,,232
2011-10-9,81,66,51,57,53,48,96,69,42,30.45,30.39,30.33,10,10,10,9,5,13,0.00,1,,243
2011-10-10,79,65,50,57,53,48,93,68,43,30.35,30.28,30.22,10,10,8,9,3,10,0.00,4,,235
2011-10-11,76,63,50,60,54,48,96,73,50,30.22,30.17,30.11,10,7,2,10,4,12,0.00,6,Fog,186
2011-10-12,65,60,54,57,54,49,93,79,64,30.09,29.99,29.88,10,8,2,17,6,23,0.56,8,Rain,123
2011-10-13,69,62,54,61,56,51,93,81,68,29.87,29.70,29.51,10,10,10,15,8,20,0.01,7,,136
2011-10-14,67,59,50,61,55,46,93,81,68,29.48,29.37,29.31,10,9,2,20,12,26,0.40,8,Rain,212
2011-10-15,53,49,45,44,42,37,86,73,59,29.66,29.47,29.39,10,9,5,31,18,44,0.20,7,Rain,237
2011-10-16,58,53,48,48,42,34,93,72,50,29.76,29.68,29.59,10,10,3,30,13,39,0.16,6,Rain,240
2011-10-17,57,49,40,44,39,36,89,70,50,29.72,29.65,29.62,10,10,10,33,13,45,0.00,5,,247
2011-10-18,61,52,42,46,41,36,83,63,42,29.91,29.81,29.72,10,10,10,20,7,24,T,7,,213
2011-10-19,60,55,49,52,48,41,93,81,68,29.85,29.64,29.37,10,8,1,23,13,30,0.99,8,Rain-Thunderstorm,67
2011-10-20,55,50,45,54,47,37,93,74,54,29.50,29.30,29.14,10,8,2,22,12,29,0.47,8,Rain-Thunderstorm,194
2011-10-21,52,49,45,45,42,39,93,78,63,30.02,29.78,29.51,10,9,2,24,12,29,0.13,7,Rain,250
2011-10-22,52,49,45,43,39,36,92,73,54,30.12,30.07,30.01,10,10,10,15,6,20,0.00,8,,263
2011-10-23,58,48,38,42,39,36,89,68,47,30.13,30.08,30.04,10,10,10,9,3,14,0.00,5,,206
2011-10-24,58,51,43,48,42,38,92,74,55,30.03,29.93,29.88,10,10,10,25,9,32,0.10,6,Rain-Thunderstorm,229
2011-10-25,57,48,39,45,40,36,93,70,47,30.14,30.08,30.01,10,8,2,18,7,24,0.32,5,Rain,290
2011-10-26,49,46,43,47,45,39,93,91,89,30.03,29.83,29.76,10,4,1,18,8,24,0.60,8,Rain,71
2011-10-27,43,37,31,41,34,29,96,83,70,30.10,29.89,29.80,10,10,7,18,9,22,0.10,8,Rain-Snow,6
2011-10-28,48,38,28,33,29,27,92,71,49,30.27,30.21,30.11,10,10,10,9,4,13,0.00,5,,207
2011-10-29,43,38,33,33,31,30,89,76,62,30.21,30.15,30.09,10,10,9,9,3,12,T,8,Rain,234
2011-10-30,51,40,28,34,31,26,92,67,41,30.28,30.23,30.13,10,10,5,15,4,24,0.00,3,,269
2011-10-31,51,41,31,35,31,27,85,68,50,30.29,30.24,30.17,10,10,8,18,6,24,0.00,7,,204